Time;durP1;ratioP1;P1;durP2;ratioP2;P2;SDS_P1;SDS_P2;PMS_P1;PMS_P2;Temp;Humidity;BMP_temperature;BMP_pressure;BME280_temperature;BME280_humidity;BME280_pressure;Samples;Min_cycle;Max_cycle;Signal;HPM_P1;HPM_P2
2022/04/06 00:00:37;;;;;;;18.20;3.75;;;10.50;99.90;;;;;;5087613;28;20488;-41
2022/04/06 00:03:02;;;;;;;18.40;3.95;;;10.50;99.90;;;;;;5091132;28;20035;-39
2022/04/06 00:05:28;;;;;;;24.80;4.90;;;10.50;99.90;;;;;;5089330;28;20020;-37
2022/04/06 00:07:54;;;;;;;21.83;4.60;;;10.50;99.90;;;;;;5093283;28;20099;-39
2022/04/06 00:10:20;;;;;;;22.77;5.00;;;10.50;99.90;;;;;;5093404;28;20090;-38
2022/04/06 00:12:45;;;;;;;16.42;4.72;;;10.50;99.90;;;;;;5090002;28;20032;-37
2022/04/06 00:15:12;;;;;;;17.27;5.22;;;10.50;99.90;;;;;;5090761;28;20056;-39
2022/04/06 00:17:38;;;;;;;12.30;5.22;;;10.50;99.90;;;;;;5091307;28;20028;-38
2022/04/06 00:20:06;;;;;;;25.48;5.32;;;10.50;99.90;;;;;;5093749;28;20538;-39
2022/04/06 00:22:31;;;;;;;16.77;5.15;;;10.50;99.90;;;;;;5092823;28;20020;-37
2022/04/06 00:24:58;;;;;;;23.73;5.88;;;10.50;99.90;;;;;;5092727;28;20034;-39
2022/04/06 00:27:24;;;;;;;15.30;5.90;;;10.50;99.90;;;;;;5092715;28;20077;-39
2022/04/06 00:29:50;;;;;;;14.27;6.03;;;10.50;99.90;;;;;;5091831;28;20020;-38
2022/04/06 00:32:16;;;;;;;14.98;4.72;;;10.50;99.90;;;;;;5090969;28;20436;-37
2022/04/06 00:37:25;;;;;;;17.30;5.50;;;10.50;99.90;;;;;;5091185;28;20085;-38
2022/04/06 00:39:51;;;;;;;17.00;5.15;;;10.60;99.90;;;;;;5090379;28;20481;-36
2022/04/06 00:42:18;;;;;;;18.27;5.35;;;10.60;99.90;;;;;;5085179;28;20025;-38
2022/04/06 00:44:44;;;;;;;14.93;4.70;;;10.60;99.90;;;;;;5087785;28;20068;-39
2022/04/06 00:47:28;;;;;;;20.02;5.53;;;10.50;99.90;;;;;;5091365;28;20536;-39
2022/04/06 00:49:54;;;;;;;16.13;5.47;;;10.50;99.90;;;;;;5088249;28;20364;-39
2022/04/06 00:52:20;;;;;;;26.20;6.00;;;10.50;99.90;;;;;;5091393;28;20031;-33
2022/04/06 00:54:47;;;;;;;23.52;5.50;;;10.50;99.90;;;;;;5091922;28;20531;-46
2022/04/06 00:57:13;;;;;;;15.85;5.50;;;10.50;99.90;;;;;;5093389;28;20472;-39
2022/04/06 00:59:41;;;;;;;18.13;4.32;;;10.40;99.90;;;;;;5090786;28;20066;-39
2022/04/06 01:02:07;;;;;;;11.60;4.45;;;10.50;99.90;;;;;;5092909;28;20532;-39
2022/04/06 01:04:33;;;;;;;14.98;4.90;;;10.60;99.90;;;;;;5095417;28;20484;-49
2022/04/06 01:06:59;;;;;;;17.80;5.38;;;10.60;99.90;;;;;;5094741;28;20024;-38
2022/04/06 01:09:25;;;;;;;20.38;4.40;;;10.50;99.90;;;;;;5087558;28;20032;-38
2022/04/06 01:11:52;;;;;;;22.63;5.13;;;10.50;99.90;;;;;;5094705;28;20102;-38
2022/04/06 01:14:19;;;;;;;24.67;5.40;;;10.50;99.90;;;;;;5093551;28;20044;-37
2022/04/06 01:16:58;;;;;;;14.73;4.60;;;10.60;99.90;;;;;;5093338;28;20020;-39
2022/04/06 01:19:28;;;;;;;16.45;5.05;;;10.50;99.90;;;;;;5095749;28;20043;-38
2022/04/06 01:21:54;;;;;;;18.58;4.93;;;10.60;99.90;;;;;;5092319;28;20024;-39
2022/04/06 01:24:20;;;;;;;18.42;5.60;;;10.60;99.90;;;;;;5094384;28;20031;-37
2022/04/06 01:26:45;;;;;;;21.50;5.88;;;10.60;99.90;;;;;;5093008;28;20028;-39
2022/04/06 01:29:11;;;;;;;13.30;4.75;;;10.60;99.90;;;;;;5096440;28;20103;-39
2022/04/06 01:31:36;;;;;;;13.98;5.25;;;10.60;99.90;;;;;;5090123;28;20074;-39
2022/04/06 01:34:02;;;;;;;11.02;4.50;;;10.60;99.90;;;;;;5095298;28;20499;-39
2022/04/06 01:36:27;;;;;;;23.92;4.88;;;10.60;99.90;;;;;;5094907;28;20025;-38
2022/04/06 01:38:53;;;;;;;20.30;4.68;;;10.60;99.90;;;;;;5095321;28;20038;-37
2022/04/06 01:41:18;;;;;;;23.25;4.63;;;10.60;99.90;;;;;;5093075;28;20102;-38
2022/04/06 01:43:44;;;;;;;14.25;4.18;;;10.60;99.90;;;;;;5076053;28;20396;-37
2022/04/06 01:46:10;;;;;;;21.77;4.55;;;10.60;99.90;;;;;;5085335;28;20103;-39
2022/04/06 01:52:11;;;;;;;16.27;4.18;;;10.60;99.90;;;;;;5095636;28;20035;-40
2022/04/06 01:54:05;;;;;;;15.95;3.92;;;10.50;99.90;;;;;;5093094;28;20104;-39
2022/04/06 01:56:30;;;;;;;13.52;3.13;;;10.50;99.90;;;;;;5083956;28;20119;-40
2022/04/06 01:58:57;;;;;;;15.15;3.20;;;10.50;99.90;;;;;;5093999;28;20028;-39
2022/04/06 02:01:22;;;;;;;18.02;4.43;;;10.50;99.90;;;;;;5093591;28;20501;-39
2022/04/06 02:03:48;;;;;;;13.23;2.67;;;10.50;99.90;;;;;;5090192;28;20023;-46
2022/04/06 02:06:13;;;;;;;8.18;3.00;;;10.40;99.90;;;;;;5093505;28;20035;-40
2022/04/06 02:08:39;;;;;;;18.73;4.38;;;10.50;99.90;;;;;;5092499;28;20111;-39
2022/04/06 02:11:05;;;;;;;9.57;3.35;;;10.50;99.90;;;;;;5094046;28;20027;-45
2022/04/06 02:13:33;;;;;;;10.95;3.90;;;10.50;99.90;;;;;;5093540;28;20421;-39
2022/04/06 02:15:59;;;;;;;12.00;3.10;;;10.40;99.90;;;;;;5094003;28;20043;-39
2022/04/06 02:18:27;;;;;;;14.85;2.67;;;10.40;99.90;;;;;;5093688;28;20032;-39
2022/04/06 02:20:52;;;;;;;;;;;10.40;99.90;;;;;;5095226;28;20020;-39
2022/04/06 02:23:18;;;;;;;8.77;2.65;;;10.50;99.90;;;;;;5095491;28;19908;-39
2022/04/06 02:25:43;;;;;;;18.90;2.80;;;10.40;99.90;;;;;;5094651;28;20032;-40
2022/04/06 02:28:09;;;;;;;13.77;2.95;;;10.40;99.90;;;;;;5092516;28;20028;-40
2022/04/06 02:30:35;;;;;;;9.23;2.35;;;10.40;99.90;;;;;;5093360;28;20016;-39
2022/04/06 02:33:00;;;;;;;20.85;3.90;;;10.40;99.90;;;;;;5096463;28;20034;-39
2022/04/06 02:35:26;;;;;;;20.73;2.95;;;10.40;99.90;;;;;;5094726;28;20432;-38
2022/04/06 02:37:51;;;;;;;13.15;2.92;;;10.40;99.90;;;;;;5092160;28;20012;-39
2022/04/06 02:40:17;;;;;;;11.45;1.92;;;10.40;99.90;;;;;;5092271;28;20047;-40
2022/04/06 02:42:44;;;;;;;18.23;3.17;;;10.40;99.90;;;;;;5095154;28;20020;-39
2022/04/06 02:45:10;;;;;;;15.68;2.35;;;10.40;99.90;;;;;;5094516;28;20392;-40
2022/04/06 02:47:36;;;;;;;13.05;2.55;;;10.30;99.90;;;;;;5093563;28;20423;-42
2022/04/06 02:50:03;;;;;;;14.95;2.33;;;10.30;99.90;;;;;;5093747;28;20036;-39
2022/04/06 02:52:30;;;;;;;6.53;2.03;;;10.30;99.90;;;;;;5093300;28;20472;-40
2022/04/06 02:54:55;;;;;;;10.73;2.55;;;10.30;99.90;;;;;;5094322;28;20490;-39
2022/04/06 02:57:21;;;;;;;11.50;2.50;;;10.20;99.90;;;;;;5092634;28;20020;-39
2022/04/06 02:59:46;;;;;;;7.32;1.85;;;10.20;99.90;;;;;;5088715;28;20048;-40
2022/04/06 03:02:12;;;;;;;10.50;2.63;;;10.20;99.90;;;;;;5080856;28;20052;-39
2022/04/06 03:04:37;;;;;;;3.47;1.75;;;10.20;99.90;;;;;;5092545;28;20369;-44
2022/04/06 03:07:03;;;;;;;10.95;2.22;;;10.20;99.90;;;;;;5093760;28;20020;-46
2022/04/06 03:09:29;;;;;;;14.25;2.70;;;10.20;99.90;;;;;;5090240;28;20115;-40
2022/04/06 03:11:54;;;;;;;14.23;2.90;;;10.20;99.90;;;;;;5099024;28;20024;-40
2022/04/06 03:14:23;;;;;;;10.15;1.85;;;10.10;99.90;;;;;;5093327;28;20441;-38
2022/04/06 03:16:48;;;;;;;6.45;2.28;;;10.10;99.90;;;;;;5088027;28;20070;-38
2022/04/06 03:19:14;;;;;;;15.43;3.13;;;10.10;99.90;;;;;;5092353;28;20036;-39
2022/04/06 03:21:39;;;;;;;16.45;2.30;;;10.10;99.90;;;;;;5094058;28;20488;-38
2022/04/06 03:24:05;;;;;;;15.93;2.90;;;10.10;99.90;;;;;;5090312;28;20106;-39
2022/04/06 03:26:31;;;;;;;8.02;1.45;;;10.10;99.90;;;;;;5092845;28;20486;-38
2022/04/06 03:28:57;;;;;;;9.88;3.15;;;10.00;99.90;;;;;;5092190;28;20052;-40
2022/04/06 03:31:23;;;;;;;11.32;1.75;;;10.00;99.90;;;;;;5085998;28;20510;-40
2022/04/06 03:33:48;;;;;;;7.43;1.73;;;10.00;99.90;;;;;;5094087;28;20028;-39
2022/04/06 03:36:14;;;;;;;10.18;2.50;;;9.90;99.90;;;;;;5093191;28;20032;-39
2022/04/06 03:38:40;;;;;;;7.32;1.50;;;9.90;99.90;;;;;;5093389;28;20507;-38
2022/04/06 03:41:06;;;;;;;7.20;1.80;;;9.90;99.90;;;;;;5093298;28;20089;-39
2022/04/06 03:43:31;;;;;;;4.88;1.73;;;9.90;99.90;;;;;;5090983;28;20473;-43
2022/04/06 03:45:57;;;;;;;13.80;1.90;;;9.90;99.90;;;;;;5092988;28;20020;-40
2022/04/06 03:48:23;;;;;;;5.82;1.70;;;9.90;99.90;;;;;;5093062;28;20122;-39
2022/04/06 03:50:50;;;;;;;16.25;1.52;;;9.80;99.90;;;;;;5091439;28;20119;-40
2022/04/06 03:53:16;;;;;;;9.27;2.15;;;9.80;99.90;;;;;;5092487;28;20024;-40
2022/04/06 03:55:42;;;;;;;5.95;1.17;;;9.80;99.90;;;;;;5092100;28;20472;-40
2022/04/06 03:58:07;;;;;;;3.00;1.10;;;9.80;99.90;;;;;;5091507;28;20039;-58
2022/04/06 04:00:33;;;;;;;6.85;1.20;;;9.80;99.90;;;;;;5092086;28;20031;-40
2022/04/06 04:02:58;;;;;;;4.47;1.27;;;9.80;99.90;;;;;;5090401;28;20028;-39
2022/04/06 04:05:24;;;;;;;8.73;1.77;;;9.70;99.90;;;;;;5092017;28;20032;-40
2022/04/06 04:07:49;;;;;;;15.27;2.20;;;9.70;99.90;;;;;;5089997;28;20042;-41
2022/04/06 04:10:19;;;;;;;3.45;1.33;;;9.70;99.90;;;;;;5092642;28;20077;-41
2022/04/06 04:12:45;;;;;;;7.50;2.20;;;9.70;99.90;;;;;;5091483;28;20035;-40
2022/04/06 04:15:10;;;;;;;6.60;1.30;;;9.70;99.90;;;;;;5090589;28;20048;-38
2022/04/06 04:17:36;;;;;;;9.90;1.27;;;9.70;99.90;;;;;;5091805;28;20372;-40
2022/04/06 04:20:02;;;;;;;5.25;1.00;;;9.60;99.90;;;;;;5091964;28;20028;-40
2022/04/06 04:22:29;;;;;;;6.15;1.52;;;9.60;99.90;;;;;;5092479;28;20028;-40
2022/04/06 04:24:55;;;;;;;13.43;1.55;;;9.60;99.90;;;;;;5090404;28;20039;-38
2022/04/06 04:27:20;;;;;;;10.48;1.70;;;9.70;99.90;;;;;;5091326;28;20387;-39
2022/04/06 04:29:46;;;;;;;8.52;1.77;;;9.70;99.90;;;;;;5092323;28;20020;-39
2022/04/06 04:32:12;;;;;;;12.45;1.92;;;9.70;99.90;;;;;;5091836;28;20036;-39
2022/04/06 04:34:37;;;;;;;17.75;1.83;;;9.70;99.90;;;;;;5092036;28;20024;-40
2022/04/06 04:37:03;;;;;;;12.63;1.85;;;9.80;99.90;;;;;;5090726;28;20471;-39
2022/04/06 04:39:29;;;;;;;4.28;1.15;;;9.70;99.90;;;;;;5092436;28;20031;-38
2022/04/06 04:41:54;;;;;;;7.30;1.50;;;9.80;99.90;;;;;;5092846;28;20016;-39
2022/04/06 04:44:20;;;;;;;9.43;1.27;;;9.70;99.90;;;;;;5092249;28;20069;-38
2022/04/06 04:46:46;;;;;;;5.80;1.48;;;9.70;99.90;;;;;;5091662;28;20119;-39
2022/04/06 04:49:11;;;;;;;11.07;1.42;;;9.80;99.90;;;;;;5091691;28;20040;-39
2022/04/06 04:51:39;;;;;;;6.55;1.30;;;9.80;99.90;;;;;;5093272;28;20510;-38
2022/04/06 04:54:05;;;;;;;6.18;1.63;;;9.70;99.90;;;;;;5086809;28;20028;-45
2022/04/06 04:56:33;;;;;;;15.50;2.83;;;9.70;99.90;;;;;;5088799;28;20024;-38
2022/04/06 04:58:59;;;;;;;8.60;1.58;;;9.60;99.90;;;;;;5092527;28;20476;-38
2022/04/06 05:01:25;;;;;;;6.30;2.15;;;9.60;99.90;;;;;;5093240;28;20032;-38
2022/04/06 05:03:51;;;;;;;9.32;2.05;;;9.60;99.90;;;;;;5091983;28;20518;-35
2022/04/06 05:06:17;;;;;;;9.35;1.27;;;9.60;99.90;;;;;;5084892;28;20024;-40
2022/04/06 05:08:43;;;;;;;7.70;1.80;;;9.60;99.90;;;;;;5091970;28;20472;-40
2022/04/06 05:11:08;;;;;;;7.50;2.17;;;9.70;99.90;;;;;;5090061;28;20051;-39
2022/04/06 05:13:34;;;;;;;10.65;1.48;;;9.70;99.90;;;;;;5091777;28;20543;-38
2022/04/06 05:16:00;;;;;;;9.15;2.30;;;9.70;99.90;;;;;;5091254;28;20971;-40
2022/04/06 05:18:29;;;;;;;10.13;2.33;;;9.70;99.90;;;;;;5091337;28;20131;-37
2022/04/06 05:20:56;;;;;;;11.00;1.60;;;9.70;99.90;;;;;;5091616;28;20111;-37
2022/04/06 05:23:21;;;;;;;16.40;2.97;;;9.80;99.90;;;;;;5091005;28;20019;-39
2022/04/06 05:25:49;;;;;;;9.23;1.63;;;9.80;99.90;;;;;;5090616;28;20038;-39
2022/04/06 05:28:16;;;;;;;7.75;1.67;;;9.70;99.90;;;;;;5091050;28;20097;-39
2022/04/06 05:30:41;;;;;;;7.10;1.92;;;9.70;99.90;;;;;;5090786;28;20453;-39
2022/04/06 05:33:08;;;;;;;7.68;1.80;;;9.80;99.90;;;;;;5090998;28;20024;-38
2022/04/06 05:35:34;;;;;;;10.07;1.70;;;9.90;99.90;;;;;;5091447;28;20036;-40
2022/04/06 05:38:00;;;;;;;11.93;2.45;;;9.80;99.90;;;;;;5090930;28;20523;-37
2022/04/06 05:40:26;;;;;;;9.40;2.13;;;9.90;99.90;;;;;;5089339;28;20099;-39
2022/04/06 05:42:51;;;;;;;5.53;2.03;;;9.90;99.90;;;;;;5090254;28;20104;-40
2022/04/06 05:45:17;;;;;;;6.60;2.60;;;9.90;99.90;;;;;;5085380;28;20039;-46
2022/04/06 05:47:43;;;;;;;8.02;2.15;;;9.90;99.90;;;;;;5089788;28;20074;-39
2022/04/06 05:50:10;;;;;;;10.07;1.75;;;10.00;99.90;;;;;;5093982;28;20028;-38
2022/04/06 05:52:36;;;;;;;21.05;3.63;;;10.00;99.90;;;;;;5092902;28;20110;-39
2022/04/06 05:55:02;;;;;;;15.27;2.10;;;10.00;99.90;;;;;;5094175;28;20099;-37
2022/04/06 05:57:28;;;;;;;17.13;2.40;;;10.10;99.90;;;;;;5094308;28;20069;-38
2022/04/06 05:59:53;;;;;;;13.65;2.30;;;10.10;99.90;;;;;;5093891;28;20483;-37
2022/04/06 06:02:19;;;;;;;6.60;1.60;;;10.20;99.90;;;;;;5093762;28;20020;-35
2022/04/06 06:04:45;;;;;;;7.15;2.30;;;10.20;99.90;;;;;;5092493;28;20071;-39
2022/04/06 06:07:11;;;;;;;6.65;2.10;;;10.20;99.90;;;;;;5095186;28;20541;-39
2022/04/06 06:09:37;;;;;;;6.05;2.58;;;10.20;99.90;;;;;;5093301;28;20020;-39
2022/04/06 06:12:03;;;;;;;5.90;2.05;;;10.30;99.90;;;;;;5094531;28;20028;-39
2022/04/06 06:14:29;;;;;;;18.55;2.38;;;10.30;99.90;;;;;;5094203;28;20369;-38
2022/04/06 06:16:55;;;;;;;6.05;1.70;;;10.20;99.90;;;;;;5094458;28;20063;-37
2022/04/06 06:19:20;;;;;;;12.27;2.70;;;10.20;99.90;;;;;;5087969;28;20024;-39
2022/04/06 06:21:46;;;;;;;4.70;2.33;;;10.20;99.90;;;;;;5094270;28;20059;-39
2022/04/06 06:24:12;;;;;;;6.65;2.33;;;10.20;99.90;;;;;;5093686;28;20027;-39
2022/04/06 06:26:39;;;;;;;17.90;2.90;;;10.30;99.90;;;;;;5095492;28;20039;-38
2022/04/06 06:29:05;;;;;;;7.72;2.28;;;10.30;99.90;;;;;;5091551;28;20036;-45
2022/04/06 06:31:31;;;;;;;11.35;1.98;;;10.30;99.90;;;;;;5093015;28;20543;-38
2022/04/06 06:33:58;;;;;;;9.70;2.22;;;10.30;99.90;;;;;;5093541;28;20103;-35
2022/04/06 06:36:24;;;;;;;6.53;1.63;;;10.30;99.90;;;;;;5093608;28;20024;-40
2022/04/06 06:38:51;;;;;;;7.55;1.50;;;10.30;99.90;;;;;;5092857;28;20036;-38
2022/04/06 06:41:17;;;;;;;9.83;2.60;;;10.30;99.90;;;;;;5094207;28;20016;-37
2022/04/06 06:43:44;;;;;;;49.60;25.27;;;10.30;99.90;;;;;;5093936;28;20035;-38
2022/04/06 06:46:11;;;;;;;7.65;2.80;;;10.30;99.90;;;;;;5095797;28;20113;-39
2022/04/06 06:48:37;;;;;;;10.35;3.00;;;10.40;99.90;;;;;;5091208;28;20016;-45
2022/04/06 06:51:03;;;;;;;11.68;2.55;;;10.50;99.90;;;;;;5092619;28;20502;-37
2022/04/06 06:53:29;;;;;;;6.75;2.00;;;10.50;99.90;;;;;;5093323;28;20067;-36
2022/04/06 06:55:55;;;;;;;13.25;1.98;;;10.60;99.90;;;;;;5091072;28;20494;-37
2022/04/06 06:58:21;;;;;;;9.18;1.85;;;10.60;99.90;;;;;;5093890;28;20024;-37
2022/04/06 07:00:46;;;;;;;17.17;8.45;;;10.70;99.90;;;;;;5092244;28;20361;-37
2022/04/06 07:03:12;;;;;;;4.18;1.90;;;10.80;99.90;;;;;;5089263;28;20078;-38
2022/04/06 07:05:37;;;;;;;15.20;3.22;;;10.80;99.90;;;;;;5089817;28;20459;-37
2022/04/06 07:08:03;;;;;;;11.30;1.88;;;10.80;99.90;;;;;;5091160;28;20093;-38
2022/04/06 07:10:29;;;;;;;8.50;1.77;;;10.90;99.90;;;;;;5093150;28;20024;-38
2022/04/06 07:12:56;;;;;;;10.48;3.50;;;10.90;99.90;;;;;;5093434;28;20510;-36
2022/04/06 07:15:23;;;;;;;11.85;3.15;;;10.90;99.90;;;;;;5094045;28;20119;-38
2022/04/06 07:17:56;;;;;;;5.72;3.25;;;11.00;99.90;;;;;;5094567;28;20078;-37
2022/04/06 07:20:29;;;;;;;11.95;1.80;;;11.00;99.90;;;;;;5094337;28;20034;-38
2022/04/06 07:22:54;;;;;;;8.48;2.28;;;11.00;99.90;;;;;;5094543;28;20450;-37
2022/04/06 07:25:20;;;;;;;18.00;4.50;;;11.00;99.90;;;;;;5092072;28;20103;-38
2022/04/06 07:27:46;;;;;;;11.65;2.72;;;11.00;99.90;;;;;;5094572;28;20084;-38
2022/04/06 07:30:13;;;;;;;6.10;1.35;;;10.90;99.90;;;;;;5093408;28;20020;-38
2022/04/06 07:32:39;;;;;;;17.67;3.15;;;10.90;99.90;;;;;;5093148;28;20396;-42
2022/04/06 07:35:06;;;;;;;21.85;5.22;;;10.90;99.90;;;;;;5089155;28;20464;-39
2022/04/06 07:37:40;;;;;;;27.75;11.25;;;10.90;99.90;;;;;;5094201;28;20369;-38
2022/04/06 07:40:07;;;;;;;11.15;1.73;;;10.80;99.90;;;;;;5091101;28;20488;-37
2022/04/06 07:42:35;;;;;;;14.30;2.85;;;10.80;99.90;;;;;;5092226;28;20496;-38
2022/04/06 07:45:01;;;;;;;14.18;5.03;;;10.80;99.90;;;;;;5093205;28;20020;-37
2022/04/06 07:47:31;;;;;;;10.45;2.78;;;10.70;99.90;;;;;;5091418;28;20020;-39
2022/04/06 07:50:01;;;;;;;8.07;1.73;;;10.70;99.90;;;;;;5103636;28;20045;-38
2022/04/06 07:52:27;;;;;;;10.13;2.10;;;10.60;99.90;;;;;;5108615;28;20026;-37
2022/04/06 07:54:53;;;;;;;9.60;3.67;;;10.60;99.90;;;;;;5092122;28;20024;-32
2022/04/06 07:57:25;;;;;;;6.40;1.45;;;10.50;99.90;;;;;;5091182;28;20090;-39
2022/04/06 07:59:52;;;;;;;10.35;1.58;;;10.40;99.90;;;;;;5093472;28;20031;-40
2022/04/06 08:02:17;;;;;;;25.13;8.88;;;10.30;99.90;;;;;;5092740;28;20031;-38
2022/04/06 08:04:43;;;;;;;13.80;2.70;;;10.30;99.90;;;;;;5093419;28;20107;-39
2022/04/06 08:07:08;;;;;;;5.63;1.73;;;10.20;99.90;;;;;;5092963;28;20020;-37
2022/04/06 08:09:34;;;;;;;14.30;2.67;;;10.20;99.90;;;;;;5090013;28;20551;-38
2022/04/06 08:12:01;;;;;;;8.75;2.35;;;10.10;99.90;;;;;;5092384;28;20024;-39
2022/04/06 08:14:27;;;;;;;8.48;1.67;;;10.00;99.90;;;;;;5090814;28;20123;-38
2022/04/06 08:16:55;;;;;;;3.45;1.23;;;10.00;99.90;;;;;;5093313;28;20028;-39
2022/04/06 08:19:22;;;;;;;7.15;1.55;;;10.00;99.90;;;;;;5092018;28;20027;-38
2022/04/06 08:21:48;;;;;;;7.22;3.35;;;10.00;99.90;;;;;;5093017;28;20111;-39
2022/04/06 08:24:14;;;;;;;8.50;2.58;;;10.00;99.90;;;;;;5089057;28;20036;-38
2022/04/06 08:26:41;;;;;;;19.00;7.65;;;10.00;99.90;;;;;;5087288;28;20138;-37
2022/04/06 08:29:06;;;;;;;16.55;5.40;;;9.90;99.90;;;;;;5092926;28;20035;-39
2022/04/06 08:31:32;;;;;;;10.35;4.13;;;10.00;99.90;;;;;;5089135;28;20395;-40
2022/04/06 08:33:58;;;;;;;15.32;5.82;;;10.00;99.90;;;;;;5091567;28;20024;-37
2022/04/06 08:36:23;;;;;;;23.27;4.80;;;10.00;99.90;;;;;;5084042;28;20028;-39
2022/04/06 08:38:49;;;;;;;9.27;2.75;;;10.00;99.90;;;;;;5090685;28;20028;-37
2022/04/06 08:41:17;;;;;;;10.05;2.28;;;10.00;99.90;;;;;;5088912;28;20028;-38
2022/04/06 08:43:46;;;;;;;13.65;2.88;;;10.00;99.90;;;;;;5091059;28;20051;-39
2022/04/06 08:46:12;;;;;;;12.52;4.20;;;10.00;99.90;;;;;;5089713;28;20815;-41
2022/04/06 08:48:38;;;;;;;20.73;6.45;;;10.00;99.90;;;;;;5092768;28;20028;-39
2022/04/06 08:51:08;;;;;;;9.93;3.78;;;10.00;99.90;;;;;;5092512;28;20032;-40
2022/04/06 08:53:40;;;;;;;15.80;3.88;;;10.00;99.90;;;;;;5093034;28;20545;-39
2022/04/06 08:56:07;;;;;;;15.48;5.15;;;9.90;99.90;;;;;;5093056;28;20107;-39
2022/04/06 08:58:33;;;;;;;4.72;2.30;;;10.00;99.90;;;;;;5089401;28;20512;-39
2022/04/06 09:00:59;;;;;;;11.80;1.92;;;10.00;99.90;;;;;;5092386;28;20024;-37
2022/04/06 09:03:25;;;;;;;18.25;8.50;;;10.00;99.90;;;;;;5093211;28;20028;-55
2022/04/06 09:06:06;;;;;;;20.92;6.93;;;10.00;99.90;;;;;;5088910;28;20016;-36
2022/04/06 09:08:44;;;;;;;22.92;7.80;;;10.10;99.90;;;;;;5092806;28;20024;-39
2022/04/06 09:11:18;;;;;;;26.40;11.00;;;10.00;99.90;;;;;;5092915;28;20539;-38
2022/04/06 09:13:46;;;;;;;33.47;15.05;;;10.00;99.90;;;;;;5088654;28;20028;-38
2022/04/06 09:16:17;;;;;;;32.30;12.80;;;9.90;99.90;;;;;;5091121;28;20559;-38
2022/04/06 09:18:45;;;;;;;11.93;3.40;;;10.00;99.90;;;;;;5091985;28;20535;-39
2022/04/06 09:21:15;;;;;;;;;;;10.00;99.90;;;;;;5088510;28;20024;-33
2022/04/06 09:23:41;;;;;;;10.30;3.15;;;9.90;99.90;;;;;;5091464;28;20423;-37
2022/04/06 09:26:13;;;;;;;20.15;6.68;;;9.90;99.90;;;;;;5092729;28;20039;-38
2022/04/06 09:28:40;;;;;;;9.35;4.38;;;10.00;99.90;;;;;;5095257;28;20365;-39
2022/04/06 09:31:06;;;;;;;12.73;5.15;;;9.90;99.90;;;;;;5095611;28;20020;-37
2022/04/06 09:33:32;;;;;;;14.95;6.47;;;9.90;99.90;;;;;;5095542;28;20032;-37
2022/04/06 09:36:16;;;;;;;8.50;4.68;;;10.00;99.90;;;;;;5094001;28;20421;-35
2022/04/06 09:38:48;;;;;;;15.23;5.20;;;10.00;99.90;;;;;;5094978;28;20026;-37
2022/04/06 09:41:15;;;;;;;24.20;10.85;;;10.00;99.90;;;;;;5095442;28;20020;-37
2022/04/06 09:43:42;;;;;;;13.23;5.50;;;10.00;99.90;;;;;;5093880;28;20058;-37
2022/04/06 09:49:28;;;;;;;9.95;4.15;;;10.00;99.90;;;;;;5076192;28;20447;-38
2022/04/06 09:51:54;;;;;;;5.88;3.50;;;10.00;99.90;;;;;;5091010;28;20507;-39
2022/04/06 09:54:19;;;;;;;8.93;4.18;;;10.10;99.90;;;;;;5096120;28;20035;-50
2022/04/06 09:56:45;;;;;;;9.75;3.83;;;10.10;99.90;;;;;;5095851;28;20467;-38
2022/04/06 09:59:13;;;;;;;12.55;4.63;;;10.10;99.90;;;;;;5096353;28;20052;-37
2022/04/06 10:01:48;;;;;;;11.75;5.10;;;10.10;99.90;;;;;;5094609;28;20605;-39
2022/04/06 10:04:17;;;;;;;16.33;4.65;;;10.20;99.90;;;;;;5095344;28;20253;-39
2022/04/06 10:06:43;;;;;;;16.48;5.13;;;10.20;99.90;;;;;;5096149;28;20495;-38
2022/04/06 10:09:11;;;;;;;19.38;6.97;;;10.20;99.90;;;;;;5095974;28;20161;-39
2022/04/06 10:11:38;;;;;;;15.05;5.18;;;10.20;99.90;;;;;;5095821;28;20024;-41
2022/04/06 10:14:06;;;;;;;12.20;4.85;;;10.30;99.90;;;;;;5095335;28;20495;-38
2022/04/06 10:16:32;;;;;;;11.40;5.07;;;10.30;99.90;;;;;;5095399;28;20044;-39
2022/04/06 10:19:00;;;;;;;16.35;6.28;;;10.40;99.90;;;;;;5095401;28;20560;-39
2022/04/06 10:21:54;;;;;;;17.48;4.40;;;10.40;99.90;;;;;;5095618;28;20031;-39
2022/04/06 10:24:51;;;;;;;8.23;5.22;;;10.60;99.90;;;;;;5095349;28;20020;-38
2022/04/06 10:27:48;;;;;;;13.30;3.92;;;10.80;99.90;;;;;;5095199;28;20020;-39
2022/04/06 10:30:23;;;;;;;19.23;5.53;;;11.20;99.90;;;;;;5083059;28;20040;-39
2022/04/06 10:32:50;;;;;;;19.75;4.72;;;11.40;99.90;;;;;;5095375;28;20035;-39
2022/04/06 10:35:17;;;;;;;15.38;4.05;;;11.40;99.90;;;;;;5094831;28;20095;-40
2022/04/06 10:37:56;;;;;;;14.48;4.72;;;11.40;99.90;;;;;;5094960;28;20028;-40
2022/04/06 10:40:41;;;;;;;12.05;4.63;;;11.40;99.90;;;;;;5095166;28;20036;-40
2022/04/06 10:43:40;;;;;;;25.40;4.30;;;11.40;99.90;;;;;;5084201;28;20044;-39
2022/04/06 10:46:15;;;;;;;25.75;5.80;;;11.40;99.90;;;;;;5094941;28;20032;-39
2022/04/06 10:49:13;;;;;;;17.35;4.70;;;11.40;99.90;;;;;;5075165;28;20029;-39
2022/04/06 10:51:48;;;;;;;10.90;4.50;;;11.40;99.90;;;;;;5075013;28;20028;-39
2022/04/06 10:54:14;;;;;;;15.52;5.50;;;11.40;99.90;;;;;;5079914;28;20127;-39
2022/04/06 10:56:55;;;;;;;64.28;27.92;;;11.40;99.90;;;;;;5094932;28;20455;-39
2022/04/06 10:59:26;;;;;;;13.43;5.40;;;11.40;99.90;;;;;;5095265;28;20024;-39
2022/04/06 11:02:15;;;;;;;28.00;13.82;;;11.40;99.90;;;;;;5093654;28;20028;-40
2022/04/06 11:04:41;;;;;;;18.77;5.97;;;11.40;99.90;;;;;;5092850;28;20036;-40
2022/04/06 11:07:08;;;;;;;14.65;4.45;;;11.40;99.90;;;;;;5093544;28;20089;-40
2022/04/06 11:12:33;;;;;;;12.02;3.78;;;11.30;99.90;;;;;;5094836;28;20035;-40
2022/04/06 11:14:58;;;;;;;9.75;4.05;;;11.10;99.90;;;;;;5093986;28;20492;-38
2022/04/06 11:17:34;;;;;;;8.48;4.22;;;11.20;99.90;;;;;;5094790;28;20036;-39
2022/04/06 11:20:00;;;;;;;15.10;4.28;;;11.20;99.90;;;;;;5094497;28;20032;-39
2022/04/06 11:22:26;;;;;;;14.38;4.07;;;11.20;99.90;;;;;;5094622;28;20024;-39
2022/04/06 11:24:54;;;;;;;6.43;3.90;;;11.20;99.90;;;;;;5093832;28;20106;-39
2022/04/06 11:27:29;;;;;;;11.98;3.72;;;11.30;99.90;;;;;;5094430;28;20480;-40
2022/04/06 11:30:18;;;;;;;10.00;4.20;;;11.30;99.90;;;;;;5094278;28;20039;-39
2022/04/06 11:32:58;;;;;;;10.77;3.95;;;11.40;99.90;;;;;;5093565;28;20488;-38
2022/04/06 11:35:37;;;;;;;12.70;4.13;;;11.40;99.90;;;;;;5094044;28;20024;-39
2022/04/06 11:38:04;;;;;;;11.90;3.22;;;11.40;99.90;;;;;;5093983;28;20030;-39
2022/04/06 11:40:31;;;;;;;3.80;2.78;;;11.40;99.90;;;;;;5094398;28;20084;-39
2022/04/06 11:42:58;;;;;;;9.00;4.15;;;11.50;99.90;;;;;;5093926;28;20062;-39
2022/04/06 11:45:30;;;;;;;6.90;3.22;;;11.60;99.90;;;;;;5094221;28;20487;-39
2022/04/06 11:47:57;;;;;;;9.70;4.70;;;11.60;99.90;;;;;;5093973;28;20035;-39
2022/04/06 11:50:34;;;;;;;9.38;3.08;;;11.50;99.90;;;;;;5093731;28;20077;-39
2022/04/06 11:53:02;;;;;;;9.30;3.38;;;11.40;99.90;;;;;;5093703;28;20552;-39
2022/04/06 11:55:47;;;;;;;;;;;11.50;99.90;;;;;;5094282;28;20099;-39
2022/04/06 11:58:34;;;;;;;4.95;2.88;;;11.40;99.90;;;;;;5093347;28;19912;-40
2022/04/06 12:01:17;;;;;;;12.40;4.70;;;11.40;99.90;;;;;;5093750;28;20031;-39
2022/04/06 12:03:45;;;;;;;7.43;4.03;;;11.30;99.90;;;;;;5093857;28;20021;-38
2022/04/06 12:06:16;;;;;;;6.07;3.53;;;11.10;99.90;;;;;;5093745;28;20055;-39
2022/04/06 12:08:44;;;;;;;9.13;4.05;;;11.10;99.90;;;;;;5093330;28;20027;-40
2022/04/06 12:11:09;;;;;;;;;;;11.10;99.90;;;;;;5093908;28;20127;-39
2022/04/06 12:13:38;;;;;;;14.07;5.07;;;11.10;99.90;;;;;;5093091;28;20010;-39
2022/04/06 12:16:04;;;;;;;13.80;4.50;;;11.10;99.90;;;;;;5093092;28;20127;-38
2022/04/06 12:18:32;;;;;;;12.20;5.25;;;11.10;99.90;;;;;;5093667;28;20437;-39
2022/04/06 12:20:59;;;;;;;9.40;3.53;;;11.20;99.90;;;;;;5093363;28;20035;-39
2022/04/06 12:23:26;;;;;;;8.10;4.53;;;11.20;99.90;;;;;;5092945;28;20024;-39
2022/04/06 12:25:52;;;;;;;5.55;3.65;;;11.20;99.90;;;;;;5093248;28;20020;-39
2022/04/06 12:28:23;;;;;;;9.25;3.78;;;11.20;99.90;;;;;;5093247;28;20500;-38
2022/04/06 12:31:10;;;;;;;6.22;3.45;;;11.20;99.90;;;;;;5092808;28;20035;-39
2022/04/06 12:33:53;;;;;;;5.88;2.92;;;11.10;99.90;;;;;;5093606;28;20527;-39
2022/04/06 12:36:24;;;;;;;10.48;5.00;;;11.10;99.90;;;;;;5093188;28;20065;-38
2022/04/06 12:39:11;;;;;;;9.32;4.05;;;11.10;99.90;;;;;;5079538;28;20023;-39
2022/04/06 12:42:02;;;;;;;7.90;5.10;;;11.00;99.90;;;;;;5092899;28;20024;-40
2022/04/06 12:44:30;;;;;;;3.25;2.95;;;11.00;99.90;;;;;;5083232;28;20028;-47
2022/04/06 12:46:56;;;;;;;;;;;10.90;99.90;;;;;;5093687;28;20028;-38
2022/04/06 12:49:36;;;;;;;7.15;3.60;;;11.00;99.90;;;;;;5093036;28;19908;-39
2022/04/06 12:52:13;;;;;;;4.80;2.72;;;11.00;99.90;;;;;;5091230;28;20055;-38
2022/04/06 12:54:43;;;;;;;6.72;2.78;;;10.90;99.90;;;;;;5092888;28;20472;-38
2022/04/06 12:57:27;;;;;;;4.35;3.05;;;10.90;99.90;;;;;;5093704;28;20027;-38
2022/04/06 13:00:01;;;;;;;5.15;2.42;;;10.90;99.90;;;;;;5097250;28;20028;-38